sensor_id;sensor_type;location;lat;lon;timestamp;temperature;humidity
13850;DHT22;6995;52.618;13.488;2023-11-22T00:02:06;0.60;1.00
13850;DHT22;6995;52.618;13.488;2023-11-22T00:04:31;0.60;1.00
13850;DHT22;6995;52.618;13.488;2023-11-22T00:06:57;0.50;1.00
13850;DHT22;6995;52.618;13.488;2023-11-22T00:09:22;0.50;1.00
13850;DHT22;6995;52.618;13.488;2023-11-22T00:11:48;0.50;1.00
13850;DHT22;6995;52.618;13.488;2023-11-22T00:14:15;0.60;1.00
13850;DHT22;6995;52.618;13.488;2023-11-22T00:16:40;0.60;1.00
13850;DHT22;6995;52.618;13.488;2023-11-22T00:19:06;0.60;1.00
13850;DHT22;6995;52.618;13.488;2023-11-22T00:21:32;0.60;1.00
13850;DHT22;6995;52.618;13.488;2023-11-22T00:23:58;0.60;1.00
13850;DHT22;6995;52.618;13.488;2023-11-22T00:26:24;0.70;1.00
13850;DHT22;6995;52.618;13.488;2023-11-22T00:28:50;0.70;1.00
13850;DHT22;6995;52.618;13.488;2023-11-22T00:31:15;0.70;1.00
13850;DHT22;6995;52.618;13.488;2023-11-22T00:33:41;0.70;1.00
13850;DHT22;6995;52.618;13.488;2023-11-22T00:36:07;0.70;1.00
13850;DHT22;6995;52.618;13.488;2023-11-22T00:38:34;0.70;1.00
13850;DHT22;6995;52.618;13.488;2023-11-22T00:41:03;0.70;1.00
13850;DHT22;6995;52.618;13.488;2023-11-22T00:43:28;0.70;1.00
13850;DHT22;6995;52.618;13.488;2023-11-22T00:45:54;0.70;1.00
13850;DHT22;6995;52.618;13.488;2023-11-22T00:48:19;0.70;1.00
13850;DHT22;6995;52.618;13.488;2023-11-22T00:50:45;0.60;1.00
13850;DHT22;6995;52.618;13.488;2023-11-22T00:53:11;0.60;1.00
13850;DHT22;6995;52.618;13.488;2023-11-22T00:55:36;0.50;1.00
13850;DHT22;6995;52.618;13.488;2023-11-22T00:58:02;0.50;1.00
13850;DHT22;6995;52.618;13.488;2023-11-22T01:00:30;0.40;1.00
13850;DHT22;6995;52.618;13.488;2023-11-22T01:02:56;0.40;1.00
13850;DHT22;6995;52.618;13.488;2023-11-22T01:05:22;0.30;1.00
13850;DHT22;6995;52.618;13.488;2023-11-22T01:07:48;0.30;1.00
13850;DHT22;6995;52.618;13.488;2023-11-22T01:10:14;0.30;1.00
13850;DHT22;6995;52.618;13.488;2023-11-22T01:12:41;0.30;1.00
13850;DHT22;6995;52.618;13.488;2023-11-22T01:15:07;0.20;1.00
13850;DHT22;6995;52.618;13.488;2023-11-22T01:17:34;0.20;1.00
13850;DHT22;6995;52.618;13.488;2023-11-22T01:20:00;0.20;1.00
13850;DHT22;6995;52.618;13.488;2023-11-22T01:22:25;0.30;1.00
13850;DHT22;6995;52.618;13.488;2023-11-22T01:24:51;0.20;1.00
13850;DHT22;6995;52.618;13.488;2023-11-22T01:27:17;0.20;1.00
13850;DHT22;6995;52.618;13.488;2023-11-22T01:29:42;0.10;1.00
13850;DHT22;6995;52.618;13.488;2023-11-22T01:32:08;0.10;1.00
13850;DHT22;6995;52.618;13.488;2023-11-22T01:34:34;0.10;1.00
13850;DHT22;6995;52.618;13.488;2023-11-22T01:37:00;0.10;1.00
13850;DHT22;6995;52.618;13.488;2023-11-22T01:39:26;0.10;1.00
13850;DHT22;6995;52.618;13.488;2023-11-22T01:41:52;0.10;1.00
13850;DHT22;6995;52.618;13.488;2023-11-22T01:44:18;0.00;1.00
13850;DHT22;6995;52.618;13.488;2023-11-22T01:46:43;0.10;1.00
13850;DHT22;6995;52.618;13.488;2023-11-22T01:49:10;0.10;1.00
13850;DHT22;6995;52.618;13.488;2023-11-22T01:51:37;0.00;1.00
13850;DHT22;6995;52.618;13.488;2023-11-22T01:54:03;0.00;1.00
13850;DHT22;6995;52.618;13.488;2023-11-22T01:56:30;0.00;1.00
13850;DHT22;6995;52.618;13.488;2023-11-22T01:58:57;0.00;1.00
13850;DHT22;6995;52.618;13.488;2023-11-22T02:01:23;-0.10;1.00
13850;DHT22;6995;52.618;13.488;2023-11-22T02:03:49;0.00;1.00
13850;DHT22;6995;52.618;13.488;2023-11-22T02:06:18;-0.10;1.00
13850;DHT22;6995;52.618;13.488;2023-11-22T02:08:43;-0.10;1.00
13850;DHT22;6995;52.618;13.488;2023-11-22T02:11:09;-0.10;1.00
13850;DHT22;6995;52.618;13.488;2023-11-22T02:13:35;-0.10;1.00
13850;DHT22;6995;52.618;13.488;2023-11-22T02:16:02;-0.20;1.00
13850;DHT22;6995;52.618;13.488;2023-11-22T02:18:29;-0.10;1.00
13850;DHT22;6995;52.618;13.488;2023-11-22T02:20:55;-0.20;1.00
13850;DHT22;6995;52.618;13.488;2023-11-22T02:23:21;-0.20;1.00
13850;DHT22;6995;52.618;13.488;2023-11-22T02:25:47;-0.20;1.00
13850;DHT22;6995;52.618;13.488;2023-11-22T02:28:13;-0.20;1.00
13850;DHT22;6995;52.618;13.488;2023-11-22T02:30:39;-0.30;1.00
13850;DHT22;6995;52.618;13.488;2023-11-22T02:33:04;-0.30;1.00
13850;DHT22;6995;52.618;13.488;2023-11-22T02:35:31;-0.30;1.00
13850;DHT22;6995;52.618;13.488;2023-11-22T02:38:00;-0.40;1.00
13850;DHT22;6995;52.618;13.488;2023-11-22T02:40:25;-0.40;1.00
13850;DHT22;6995;52.618;13.488;2023-11-22T02:42:52;-0.40;1.00
13850;DHT22;6995;52.618;13.488;2023-11-22T02:45:21;-0.40;1.00
13850;DHT22;6995;52.618;13.488;2023-11-22T02:47:49;-0.40;1.00
13850;DHT22;6995;52.618;13.488;2023-11-22T02:50:15;-0.40;1.00
13850;DHT22;6995;52.618;13.488;2023-11-22T02:52:41;-0.40;1.00
13850;DHT22;6995;52.618;13.488;2023-11-22T02:55:08;-0.40;1.00
13850;DHT22;6995;52.618;13.488;2023-11-22T02:57:37;-0.50;1.00
13850;DHT22;6995;52.618;13.488;2023-11-22T03:00:06;-0.60;1.00
13850;DHT22;6995;52.618;13.488;2023-11-22T03:02:33;-0.60;1.00
13850;DHT22;6995;52.618;13.488;2023-11-22T03:04:59;-0.60;1.00
13850;DHT22;6995;52.618;13.488;2023-11-22T03:07:28;-0.50;1.00
13850;DHT22;6995;52.618;13.488;2023-11-22T03:09:53;-0.50;1.00
13850;DHT22;6995;52.618;13.488;2023-11-22T03:12:19;-0.50;1.00
13850;DHT22;6995;52.618;13.488;2023-11-22T03:14:46;-0.50;1.00
13850;DHT22;6995;52.618;13.488;2023-11-22T03:17:12;-0.60;1.00
13850;DHT22;6995;52.618;13.488;2023-11-22T03:19:38;-0.60;1.00
13850;DHT22;6995;52.618;13.488;2023-11-22T03:22:05;-0.60;1.00
13850;DHT22;6995;52.618;13.488;2023-11-22T03:24:32;-0.60;1.00
13850;DHT22;6995;52.618;13.488;2023-11-22T03:26:59;-0.60;1.00
13850;DHT22;6995;52.618;13.488;2023-11-22T03:29:25;-0.70;1.00
13850;DHT22;6995;52.618;13.488;2023-11-22T03:31:52;-0.70;1.00
13850;DHT22;6995;52.618;13.488;2023-11-22T03:34:19;-0.70;1.00
13850;DHT22;6995;52.618;13.488;2023-11-22T03:36:45;-0.70;1.00
13850;DHT22;6995;52.618;13.488;2023-11-22T03:39:10;-0.80;1.00
13850;DHT22;6995;52.618;13.488;2023-11-22T03:41:36;-0.80;1.00
13850;DHT22;6995;52.618;13.488;2023-11-22T03:44:05;-0.80;1.00
13850;DHT22;6995;52.618;13.488;2023-11-22T03:46:37;-0.80;1.00
13850;DHT22;6995;52.618;13.488;2023-11-22T03:49:06;-0.80;1.00
13850;DHT22;6995;52.618;13.488;2023-11-22T03:51:35;-0.80;1.00
13850;DHT22;6995;52.618;13.488;2023-11-22T03:54:01;-0.80;1.00
13850;DHT22;6995;52.618;13.488;2023-11-22T03:56:28;-0.90;1.00
13850;DHT22;6995;52.618;13.488;2023-11-22T03:58:54;-0.90;1.00
13850;DHT22;6995;52.618;13.488;2023-11-22T04:01:20;-0.90;1.00
13850;DHT22;6995;52.618;13.488;2023-11-22T04:03:46;-0.90;1.00
13850;DHT22;6995;52.618;13.488;2023-11-22T04:06:17;-0.90;1.00
13850;DHT22;6995;52.618;13.488;2023-11-22T04:08:44;-0.90;1.00
13850;DHT22;6995;52.618;13.488;2023-11-22T04:11:13;-0.90;1.00
13850;DHT22;6995;52.618;13.488;2023-11-22T04:13:39;-0.90;1.00
13850;DHT22;6995;52.618;13.488;2023-11-22T04:16:06;-0.90;1.00
13850;DHT22;6995;52.618;13.488;2023-11-22T04:18:34;-0.90;1.00
13850;DHT22;6995;52.618;13.488;2023-11-22T04:21:01;-0.90;1.00
13850;DHT22;6995;52.618;13.488;2023-11-22T04:23:28;-0.90;1.00
13850;DHT22;6995;52.618;13.488;2023-11-22T04:25:54;-0.90;1.00
13850;DHT22;6995;52.618;13.488;2023-11-22T04:28:19;-0.90;1.00
13850;DHT22;6995;52.618;13.488;2023-11-22T04:30:45;-1.00;1.00
13850;DHT22;6995;52.618;13.488;2023-11-22T04:33:10;-1.00;1.00
13850;DHT22;6995;52.618;13.488;2023-11-22T04:35:36;-1.00;1.00
13850;DHT22;6995;52.618;13.488;2023-11-22T04:38:04;-1.00;1.00
13850;DHT22;6995;52.618;13.488;2023-11-22T04:40:30;-1.00;1.00
13850;DHT22;6995;52.618;13.488;2023-11-22T04:42:56;-1.00;1.00
13850;DHT22;6995;52.618;13.488;2023-11-22T04:45:21;-1.10;1.00
13850;DHT22;6995;52.618;13.488;2023-11-22T04:47:47;-1.10;1.00
13850;DHT22;6995;52.618;13.488;2023-11-22T04:50:13;-1.10;1.00
13850;DHT22;6995;52.618;13.488;2023-11-22T04:52:39;-1.10;1.00
13850;DHT22;6995;52.618;13.488;2023-11-22T04:55:05;-1.10;1.00
13850;DHT22;6995;52.618;13.488;2023-11-22T04:57:31;-1.10;1.00
13850;DHT22;6995;52.618;13.488;2023-11-22T04:59:56;-1.10;1.00
13850;DHT22;6995;52.618;13.488;2023-11-22T05:02:22;-1.10;1.00
13850;DHT22;6995;52.618;13.488;2023-11-22T05:04:48;-1.10;1.00
13850;DHT22;6995;52.618;13.488;2023-11-22T05:07:14;-1.10;1.00
13850;DHT22;6995;52.618;13.488;2023-11-22T05:09:40;-1.10;1.00
13850;DHT22;6995;52.618;13.488;2023-11-22T05:12:06;-1.10;1.00
13850;DHT22;6995;52.618;13.488;2023-11-22T05:14:32;-1.10;1.00
13850;DHT22;6995;52.618;13.488;2023-11-22T05:16:57;-1.10;1.00
13850;DHT22;6995;52.618;13.488;2023-11-22T05:19:24;-1.20;1.00
13850;DHT22;6995;52.618;13.488;2023-11-22T05:21:49;-1.20;1.00
13850;DHT22;6995;52.618;13.488;2023-11-22T05:24:15;-1.20;1.00
13850;DHT22;6995;52.618;13.488;2023-11-22T05:26:41;-1.20;1.00
13850;DHT22;6995;52.618;13.488;2023-11-22T05:29:07;-1.20;1.00
13850;DHT22;6995;52.618;13.488;2023-11-22T05:31:32;-1.20;1.00
13850;DHT22;6995;52.618;13.488;2023-11-22T05:33:58;-1.30;1.00
13850;DHT22;6995;52.618;13.488;2023-11-22T05:36:23;-1.30;1.00
13850;DHT22;6995;52.618;13.488;2023-11-22T05:38:49;-1.30;1.00
13850;DHT22;6995;52.618;13.488;2023-11-22T05:41:15;-1.30;1.00
13850;DHT22;6995;52.618;13.488;2023-11-22T05:43:41;-1.30;1.00
13850;DHT22;6995;52.618;13.488;2023-11-22T05:46:08;-1.30;1.00
13850;DHT22;6995;52.618;13.488;2023-11-22T05:48:34;-1.30;1.00
13850;DHT22;6995;52.618;13.488;2023-11-22T05:50:59;-1.20;1.00
13850;DHT22;6995;52.618;13.488;2023-11-22T05:53:25;-1.30;1.00
13850;DHT22;6995;52.618;13.488;2023-11-22T05:55:51;-1.30;1.00
13850;DHT22;6995;52.618;13.488;2023-11-22T05:58:18;-1.30;1.00
13850;DHT22;6995;52.618;13.488;2023-11-22T06:00:46;-1.40;1.00
13850;DHT22;6995;52.618;13.488;2023-11-22T06:03:13;-1.40;1.00
13850;DHT22;6995;52.618;13.488;2023-11-22T06:05:39;-1.40;1.00
13850;DHT22;6995;52.618;13.488;2023-11-22T06:08:05;-1.40;1.00
13850;DHT22;6995;52.618;13.488;2023-11-22T06:10:31;-1.50;1.00
13850;DHT22;6995;52.618;13.488;2023-11-22T06:12:57;-1.50;1.00
13850;DHT22;6995;52.618;13.488;2023-11-22T06:15:23;-1.50;1.00
13850;DHT22;6995;52.618;13.488;2023-11-22T06:17:49;-1.50;1.00
13850;DHT22;6995;52.618;13.488;2023-11-22T06:20:15;-1.50;1.00
13850;DHT22;6995;52.618;13.488;2023-11-22T06:22:41;-1.50;1.00
13850;DHT22;6995;52.618;13.488;2023-11-22T06:25:09;-1.50;1.00
13850;DHT22;6995;52.618;13.488;2023-11-22T06:27:36;-1.50;1.00
13850;DHT22;6995;52.618;13.488;2023-11-22T06:30:01;-1.50;1.00
13850;DHT22;6995;52.618;13.488;2023-11-22T06:32:28;-1.50;1.00
13850;DHT22;6995;52.618;13.488;2023-11-22T06:34:54;-1.60;1.00
13850;DHT22;6995;52.618;13.488;2023-11-22T06:37:20;-1.60;1.00
13850;DHT22;6995;52.618;13.488;2023-11-22T06:39:47;-1.70;1.00
13850;DHT22;6995;52.618;13.488;2023-11-22T06:42:12;-1.60;1.00
13850;DHT22;6995;52.618;13.488;2023-11-22T06:44:39;-1.60;1.00
13850;DHT22;6995;52.618;13.488;2023-11-22T06:47:05;-1.60;1.00
13850;DHT22;6995;52.618;13.488;2023-11-22T06:49:33;-1.60;1.00
13850;DHT22;6995;52.618;13.488;2023-11-22T06:51:59;-1.60;1.00
13850;DHT22;6995;52.618;13.488;2023-11-22T06:54:25;-1.60;1.00
13850;DHT22;6995;52.618;13.488;2023-11-22T06:56:50;-1.60;1.00
13850;DHT22;6995;52.618;13.488;2023-11-22T06:59:17;-1.50;1.00
13850;DHT22;6995;52.618;13.488;2023-11-22T07:01:43;-1.50;1.00
13850;DHT22;6995;52.618;13.488;2023-11-22T07:04:08;-1.50;1.00
13850;DHT22;6995;52.618;13.488;2023-11-22T07:06:34;-1.50;1.00
13850;DHT22;6995;52.618;13.488;2023-11-22T07:09:03;-1.50;1.00
13850;DHT22;6995;52.618;13.488;2023-11-22T07:11:29;-1.50;1.00
13850;DHT22;6995;52.618;13.488;2023-11-22T07:13:56;-1.40;1.00
13850;DHT22;6995;52.618;13.488;2023-11-22T07:16:23;-1.30;1.00
13850;DHT22;6995;52.618;13.488;2023-11-22T07:18:50;-1.30;1.00
13850;DHT22;6995;52.618;13.488;2023-11-22T07:21:16;-1.30;1.00
13850;DHT22;6995;52.618;13.488;2023-11-22T07:23:42;-1.20;1.00
13850;DHT22;6995;52.618;13.488;2023-11-22T07:26:08;-1.20;1.00
13850;DHT22;6995;52.618;13.488;2023-11-22T07:28:33;-1.20;1.00
13850;DHT22;6995;52.618;13.488;2023-11-22T07:31:01;-1.10;1.00
13850;DHT22;6995;52.618;13.488;2023-11-22T07:33:27;-1.10;1.00
13850;DHT22;6995;52.618;13.488;2023-11-22T07:35:53;-1.00;1.00
13850;DHT22;6995;52.618;13.488;2023-11-22T07:38:19;-1.00;1.00
13850;DHT22;6995;52.618;13.488;2023-11-22T07:40:45;-1.00;1.00
13850;DHT22;6995;52.618;13.488;2023-11-22T07:43:10;-0.90;1.00
13850;DHT22;6995;52.618;13.488;2023-11-22T07:45:36;-0.90;1.00
13850;DHT22;6995;52.618;13.488;2023-11-22T07:48:04;-0.80;1.00
13850;DHT22;6995;52.618;13.488;2023-11-22T07:50:29;-0.80;1.00
13850;DHT22;6995;52.618;13.488;2023-11-22T07:52:55;-0.70;1.00
13850;DHT22;6995;52.618;13.488;2023-11-22T07:55:21;-0.60;1.00
13850;DHT22;6995;52.618;13.488;2023-11-22T07:57:50;-0.50;1.00
13850;DHT22;6995;52.618;13.488;2023-11-22T08:00:21;-0.40;1.00
13850;DHT22;6995;52.618;13.488;2023-11-22T08:02:48;-0.40;1.00
13850;DHT22;6995;52.618;13.488;2023-11-22T08:05:15;-0.30;1.00
13850;DHT22;6995;52.618;13.488;2023-11-22T08:07:44;-0.20;1.00
13850;DHT22;6995;52.618;13.488;2023-11-22T08:10:11;-0.20;1.00
13850;DHT22;6995;52.618;13.488;2023-11-22T08:12:47;-0.10;1.00
13850;DHT22;6995;52.618;13.488;2023-11-22T08:15:15;-0.10;1.00
13850;DHT22;6995;52.618;13.488;2023-11-22T08:17:41;0.00;1.00
13850;DHT22;6995;52.618;13.488;2023-11-22T08:20:07;0.00;1.00
13850;DHT22;6995;52.618;13.488;2023-11-22T08:22:38;0.10;1.00
13850;DHT22;6995;52.618;13.488;2023-11-22T08:25:05;0.20;1.00
13850;DHT22;6995;52.618;13.488;2023-11-22T08:27:31;0.20;1.00
13850;DHT22;6995;52.618;13.488;2023-11-22T08:29:57;0.20;1.00
13850;DHT22;6995;52.618;13.488;2023-11-22T08:32:30;0.30;1.00
13850;DHT22;6995;52.618;13.488;2023-11-22T08:34:56;0.40;1.00
13850;DHT22;6995;52.618;13.488;2023-11-22T08:37:22;0.40;1.00
13850;DHT22;6995;52.618;13.488;2023-11-22T08:39:48;0.40;1.00
13850;DHT22;6995;52.618;13.488;2023-11-22T08:42:15;0.50;1.00
13850;DHT22;6995;52.618;13.488;2023-11-22T08:44:41;0.60;1.00
13850;DHT22;6995;52.618;13.488;2023-11-22T08:47:07;0.60;1.00
13850;DHT22;6995;52.618;13.488;2023-11-22T08:49:34;0.70;1.00
13850;DHT22;6995;52.618;13.488;2023-11-22T08:51:59;0.70;1.00
13850;DHT22;6995;52.618;13.488;2023-11-22T08:54:26;0.70;1.00
13850;DHT22;6995;52.618;13.488;2023-11-22T08:56:55;0.70;1.00
13850;DHT22;6995;52.618;13.488;2023-11-22T08:59:23;0.80;1.00
13850;DHT22;6995;52.618;13.488;2023-11-22T09:01:49;0.90;1.00
13850;DHT22;6995;52.618;13.488;2023-11-22T09:04:15;1.00;1.00
13850;DHT22;6995;52.618;13.488;2023-11-22T09:06:41;1.00;99.90
13850;DHT22;6995;52.618;13.488;2023-11-22T09:09:07;1.00;99.90
13850;DHT22;6995;52.618;13.488;2023-11-22T09:11:34;1.10;99.90
13850;DHT22;6995;52.618;13.488;2023-11-22T09:14:00;1.10;99.90
13850;DHT22;6995;52.618;13.488;2023-11-22T09:16:37;1.10;99.90
13850;DHT22;6995;52.618;13.488;2023-11-22T09:19:04;1.30;99.90
13850;DHT22;6995;52.618;13.488;2023-11-22T09:21:32;1.20;99.90
13850;DHT22;6995;52.618;13.488;2023-11-22T09:23:58;1.20;99.90
13850;DHT22;6995;52.618;13.488;2023-11-22T09:26:24;1.30;99.90
13850;DHT22;6995;52.618;13.488;2023-11-22T09:28:50;1.20;99.90
13850;DHT22;6995;52.618;13.488;2023-11-22T09:31:15;1.20;99.90
13850;DHT22;6995;52.618;13.488;2023-11-22T09:33:45;1.30;99.90
13850;DHT22;6995;52.618;13.488;2023-11-22T09:36:12;1.40;99.90
13850;DHT22;6995;52.618;13.488;2023-11-22T09:38:38;1.40;99.90
13850;DHT22;6995;52.618;13.488;2023-11-22T09:41:04;1.50;99.90
13850;DHT22;6995;52.618;13.488;2023-11-22T09:43:31;1.60;99.90
13850;DHT22;6995;52.618;13.488;2023-11-22T09:45:56;1.60;99.90
13850;DHT22;6995;52.618;13.488;2023-11-22T09:48:23;1.80;99.90
13850;DHT22;6995;52.618;13.488;2023-11-22T09:50:54;1.80;99.90
13850;DHT22;6995;52.618;13.488;2023-11-22T09:53:32;1.80;99.90
13850;DHT22;6995;52.618;13.488;2023-11-22T09:56:02;1.80;99.90
13850;DHT22;6995;52.618;13.488;2023-11-22T09:58:33;1.90;99.90
13850;DHT22;6995;52.618;13.488;2023-11-22T10:01:00;2.00;99.90
13850;DHT22;6995;52.618;13.488;2023-11-22T10:03:27;2.10;99.90
13850;DHT22;6995;52.618;13.488;2023-11-22T10:05:56;2.10;99.90
13850;DHT22;6995;52.618;13.488;2023-11-22T10:08:23;2.20;99.90
13850;DHT22;6995;52.618;13.488;2023-11-22T10:10:49;2.30;99.90
13850;DHT22;6995;52.618;13.488;2023-11-22T10:13:19;2.30;99.90
13850;DHT22;6995;52.618;13.488;2023-11-22T10:15:49;2.30;99.90
13850;DHT22;6995;52.618;13.488;2023-11-22T10:18:15;2.30;99.90
13850;DHT22;6995;52.618;13.488;2023-11-22T10:20:43;2.40;99.90
13850;DHT22;6995;52.618;13.488;2023-11-22T10:23:16;2.40;99.90
13850;DHT22;6995;52.618;13.488;2023-11-22T10:25:53;2.40;99.90
13850;DHT22;6995;52.618;13.488;2023-11-22T10:28:19;2.40;99.90
13850;DHT22;6995;52.618;13.488;2023-11-22T10:30:46;2.40;99.90
13850;DHT22;6995;52.618;13.488;2023-11-22T10:33:12;2.40;99.90
13850;DHT22;6995;52.618;13.488;2023-11-22T10:35:45;2.50;99.90
13850;DHT22;6995;52.618;13.488;2023-11-22T10:38:18;2.60;99.90
13850;DHT22;6995;52.618;13.488;2023-11-22T10:40:45;2.70;99.90
13850;DHT22;6995;52.618;13.488;2023-11-22T10:43:17;2.60;99.90
13850;DHT22;6995;52.618;13.488;2023-11-22T10:45:44;2.70;99.90
13850;DHT22;6995;52.618;13.488;2023-11-22T10:48:19;2.60;99.90
13850;DHT22;6995;52.618;13.488;2023-11-22T10:50:47;2.60;99.90
13850;DHT22;6995;52.618;13.488;2023-11-22T10:53:15;2.70;99.90
13850;DHT22;6995;52.618;13.488;2023-11-22T10:55:45;2.70;99.90
13850;DHT22;6995;52.618;13.488;2023-11-22T10:58:14;2.80;99.90
13850;DHT22;6995;52.618;13.488;2023-11-22T11:00:41;2.70;99.90
13850;DHT22;6995;52.618;13.488;2023-11-22T11:03:18;2.80;99.90
13850;DHT22;6995;52.618;13.488;2023-11-22T11:05:59;2.90;99.90
13850;DHT22;6995;52.618;13.488;2023-11-22T11:08:30;2.90;99.90
13850;DHT22;6995;52.618;13.488;2023-11-22T11:10:57;3.00;99.90
13850;DHT22;6995;52.618;13.488;2023-11-22T11:13:24;2.90;99.90
13850;DHT22;6995;52.618;13.488;2023-11-22T11:15:51;3.00;99.90
13850;DHT22;6995;52.618;13.488;2023-11-22T11:18:18;3.00;99.90
13850;DHT22;6995;52.618;13.488;2023-11-22T11:20:55;3.00;99.90
13850;DHT22;6995;52.618;13.488;2023-11-22T11:23:23;3.20;99.90
13850;DHT22;6995;52.618;13.488;2023-11-22T11:25:56;3.20;99.90
13850;DHT22;6995;52.618;13.488;2023-11-22T11:28:24;3.20;99.90
13850;DHT22;6995;52.618;13.488;2023-11-22T11:30:53;3.20;99.90
13850;DHT22;6995;52.618;13.488;2023-11-22T11:33:26;3.20;99.90
13850;DHT22;6995;52.618;13.488;2023-11-22T11:35:52;3.10;99.90
13850;DHT22;6995;52.618;13.488;2023-11-22T11:38:30;3.00;99.90
13850;DHT22;6995;52.618;13.488;2023-11-22T11:41:09;3.00;99.90
13850;DHT22;6995;52.618;13.488;2023-11-22T11:43:48;3.10;99.90
13850;DHT22;6995;52.618;13.488;2023-11-22T11:46:17;3.30;99.90
13850;DHT22;6995;52.618;13.488;2023-11-22T11:48:50;3.40;99.90
13850;DHT22;6995;52.618;13.488;2023-11-22T11:51:22;3.40;99.90
13850;DHT22;6995;52.618;13.488;2023-11-22T11:53:48;3.30;99.90
13850;DHT22;6995;52.618;13.488;2023-11-22T11:56:14;3.40;99.90
13850;DHT22;6995;52.618;13.488;2023-11-22T11:58:44;3.50;99.90
13850;DHT22;6995;52.618;13.488;2023-11-22T12:01:12;3.60;99.90
13850;DHT22;6995;52.618;13.488;2023-11-22T12:03:38;3.70;99.90
13850;DHT22;6995;52.618;13.488;2023-11-22T12:06:07;3.60;99.90
13850;DHT22;6995;52.618;13.488;2023-11-22T12:08:33;3.60;99.90
13850;DHT22;6995;52.618;13.488;2023-11-22T12:11:05;3.70;99.90
13850;DHT22;6995;52.618;13.488;2023-11-22T12:13:36;3.70;99.90
13850;DHT22;6995;52.618;13.488;2023-11-22T12:16:05;3.70;99.90
13850;DHT22;6995;52.618;13.488;2023-11-22T12:18:50;3.90;99.90
13850;DHT22;6995;52.618;13.488;2023-11-22T12:21:17;4.00;99.90
13850;DHT22;6995;52.618;13.488;2023-11-22T12:23:44;4.00;99.90
13850;DHT22;6995;52.618;13.488;2023-11-22T12:26:13;4.00;99.90
13850;DHT22;6995;52.618;13.488;2023-11-22T12:28:41;3.90;99.90
13850;DHT22;6995;52.618;13.488;2023-11-22T12:31:11;4.00;99.90
13850;DHT22;6995;52.618;13.488;2023-11-22T12:33:37;4.00;99.90
13850;DHT22;6995;52.618;13.488;2023-11-22T12:36:05;4.20;99.90
13850;DHT22;6995;52.618;13.488;2023-11-22T12:38:32;4.40;99.90
13850;DHT22;6995;52.618;13.488;2023-11-22T12:40:58;4.70;99.90
13850;DHT22;6995;52.618;13.488;2023-11-22T12:43:24;4.70;99.90
13850;DHT22;6995;52.618;13.488;2023-11-22T12:46:05;4.80;99.90
13850;DHT22;6995;52.618;13.488;2023-11-22T12:48:36;4.90;99.90
13850;DHT22;6995;52.618;13.488;2023-11-22T12:51:01;4.80;99.90
13850;DHT22;6995;52.618;13.488;2023-11-22T12:53:27;4.90;99.90
13850;DHT22;6995;52.618;13.488;2023-11-22T12:55:56;5.00;99.90
13850;DHT22;6995;52.618;13.488;2023-11-22T12:58:23;5.00;99.90
13850;DHT22;6995;52.618;13.488;2023-11-22T13:00:51;5.00;99.90
13850;DHT22;6995;52.618;13.488;2023-11-22T13:03:24;4.90;99.90
13850;DHT22;6995;52.618;13.488;2023-11-22T13:05:50;4.60;99.90
13850;DHT22;6995;52.618;13.488;2023-11-22T13:08:18;4.50;99.90
13850;DHT22;6995;52.618;13.488;2023-11-22T13:10:45;4.40;99.90
13850;DHT22;6995;52.618;13.488;2023-11-22T13:13:12;4.40;99.90
13850;DHT22;6995;52.618;13.488;2023-11-22T13:15:38;4.40;99.90
13850;DHT22;6995;52.618;13.488;2023-11-22T13:18:06;4.40;99.90
13850;DHT22;6995;52.618;13.488;2023-11-22T13:20:32;4.30;99.90
13850;DHT22;6995;52.618;13.488;2023-11-22T13:22:58;4.30;99.90
13850;DHT22;6995;52.618;13.488;2023-11-22T13:25:25;4.20;99.90
13850;DHT22;6995;52.618;13.488;2023-11-22T13:27:52;4.20;99.90
13850;DHT22;6995;52.618;13.488;2023-11-22T13:30:19;4.00;99.90
13850;DHT22;6995;52.618;13.488;2023-11-22T13:32:49;4.00;99.90
13850;DHT22;6995;52.618;13.488;2023-11-22T13:35:15;4.10;99.90
13850;DHT22;6995;52.618;13.488;2023-11-22T13:37:43;4.20;99.90
13850;DHT22;6995;52.618;13.488;2023-11-22T13:40:13;4.10;99.90
13850;DHT22;6995;52.618;13.488;2023-11-22T13:42:43;4.10;99.90
13850;DHT22;6995;52.618;13.488;2023-11-22T13:45:10;4.10;99.90
13850;DHT22;6995;52.618;13.488;2023-11-22T13:47:36;4.00;99.90
13850;DHT22;6995;52.618;13.488;2023-11-22T13:50:02;3.90;99.90
13850;DHT22;6995;52.618;13.488;2023-11-22T13:52:29;3.80;99.90
13850;DHT22;6995;52.618;13.488;2023-11-22T13:54:54;3.80;99.90
13850;DHT22;6995;52.618;13.488;2023-11-22T13:57:22;3.70;99.90
13850;DHT22;6995;52.618;13.488;2023-11-22T13:59:48;3.60;99.90
13850;DHT22;6995;52.618;13.488;2023-11-22T14:02:14;3.50;99.90
13850;DHT22;6995;52.618;13.488;2023-11-22T14:04:40;3.50;99.90
13850;DHT22;6995;52.618;13.488;2023-11-22T14:07:06;3.50;99.90
13850;DHT22;6995;52.618;13.488;2023-11-22T14:09:32;3.50;99.90
13850;DHT22;6995;52.618;13.488;2023-11-22T14:12:02;3.40;99.90
13850;DHT22;6995;52.618;13.488;2023-11-22T14:14:27;3.40;99.90
13850;DHT22;6995;52.618;13.488;2023-11-22T14:16:53;3.40;99.90
13850;DHT22;6995;52.618;13.488;2023-11-22T14:19:19;3.30;99.90
13850;DHT22;6995;52.618;13.488;2023-11-22T14:21:44;3.30;99.90
13850;DHT22;6995;52.618;13.488;2023-11-22T14:24:10;3.30;99.90
13850;DHT22;6995;52.618;13.488;2023-11-22T14:26:37;3.20;99.90
13850;DHT22;6995;52.618;13.488;2023-11-22T14:29:03;3.10;99.90
13850;DHT22;6995;52.618;13.488;2023-11-22T14:31:29;3.10;99.90
13850;DHT22;6995;52.618;13.488;2023-11-22T14:33:55;3.00;99.90
13850;DHT22;6995;52.618;13.488;2023-11-22T14:36:23;2.90;99.90
13850;DHT22;6995;52.618;13.488;2023-11-22T14:38:49;2.90;99.90
13850;DHT22;6995;52.618;13.488;2023-11-22T14:41:20;2.80;99.90
13850;DHT22;6995;52.618;13.488;2023-11-22T14:43:46;2.70;99.90
13850;DHT22;6995;52.618;13.488;2023-11-22T14:46:12;2.60;99.90
13850;DHT22;6995;52.618;13.488;2023-11-22T14:48:38;2.50;99.90
13850;DHT22;6995;52.618;13.488;2023-11-22T14:51:04;2.40;99.90
13850;DHT22;6995;52.618;13.488;2023-11-22T14:53:30;2.40;99.90
13850;DHT22;6995;52.618;13.488;2023-11-22T14:55:56;2.40;99.90
13850;DHT22;6995;52.618;13.488;2023-11-22T14:58:22;2.40;99.90
13850;DHT22;6995;52.618;13.488;2023-11-22T15:00:48;2.40;99.90
13850;DHT22;6995;52.618;13.488;2023-11-22T15:03:14;2.40;99.90
13850;DHT22;6995;52.618;13.488;2023-11-22T15:05:40;2.30;99.90
13850;DHT22;6995;52.618;13.488;2023-11-22T15:08:07;2.30;99.90
13850;DHT22;6995;52.618;13.488;2023-11-22T15:10:33;2.30;99.90
13850;DHT22;6995;52.618;13.488;2023-11-22T15:12:58;2.30;99.90
13850;DHT22;6995;52.618;13.488;2023-11-22T15:15:25;2.30;99.90
13850;DHT22;6995;52.618;13.488;2023-11-22T15:17:51;2.20;99.90
13850;DHT22;6995;52.618;13.488;2023-11-22T15:20:16;2.20;99.90
13850;DHT22;6995;52.618;13.488;2023-11-22T15:22:42;2.20;99.90
13850;DHT22;6995;52.618;13.488;2023-11-22T15:25:08;2.20;99.90
13850;DHT22;6995;52.618;13.488;2023-11-22T15:27:35;2.20;99.90
13850;DHT22;6995;52.618;13.488;2023-11-22T15:30:02;2.20;99.90
13850;DHT22;6995;52.618;13.488;2023-11-22T15:32:28;2.20;99.90
13850;DHT22;6995;52.618;13.488;2023-11-22T15:34:54;2.20;99.90
13850;DHT22;6995;52.618;13.488;2023-11-22T15:37:20;2.30;99.90
13850;DHT22;6995;52.618;13.488;2023-11-22T15:39:45;2.30;99.90
13850;DHT22;6995;52.618;13.488;2023-11-22T15:42:11;2.30;99.90
13850;DHT22;6995;52.618;13.488;2023-11-22T15:44:37;2.30;99.90
13850;DHT22;6995;52.618;13.488;2023-11-22T15:47:03;2.30;99.90
13850;DHT22;6995;52.618;13.488;2023-11-22T15:49:34;2.40;99.90